sensor_id;sensor_type;location;lat;lon;timestamp;P1;durP1;ratioP1;P2;durP2;ratioP2
36547;SDS011;22551;52.206;4.856;2022-09-12T00:02:56;22.02;;;13.18;;
36547;SDS011;22551;52.206;4.856;2022-09-12T00:07:59;19.65;;;12.82;;
36547;SDS011;22551;52.206;4.856;2022-09-12T00:13:03;17.15;;;11.35;;
36547;SDS011;22551;52.206;4.856;2022-09-12T00:18:05;19.70;;;12.73;;
36547;SDS011;22551;52.206;4.856;2022-09-12T00:23:10;24.63;;;13.73;;
36547;SDS011;22551;52.206;4.856;2022-09-12T00:28:14;20.70;;;13.30;;
36547;SDS011;22551;52.206;4.856;2022-09-12T00:33:18;19.63;;;13.63;;
36547;SDS011;22551;52.206;4.856;2022-09-12T00:38:20;25.15;;;13.02;;
36547;SDS011;22551;52.206;4.856;2022-09-12T00:43:34;22.90;;;14.07;;
36547;SDS011;22551;52.206;4.856;2022-09-12T00:48:40;25.67;;;14.77;;
36547;SDS011;22551;52.206;4.856;2022-09-12T00:53:47;23.20;;;15.30;;
36547;SDS011;22551;52.206;4.856;2022-09-12T00:58:54;23.02;;;15.23;;
36547;SDS011;22551;52.206;4.856;2022-09-12T01:04:00;26.98;;;15.23;;
36547;SDS011;22551;52.206;4.856;2022-09-12T01:09:03;24.83;;;15.40;;
36547;SDS011;22551;52.206;4.856;2022-09-12T01:14:07;25.65;;;14.95;;
36547;SDS011;22551;52.206;4.856;2022-09-12T01:19:14;26.88;;;15.88;;
36547;SDS011;22551;52.206;4.856;2022-09-12T01:35:48;28.65;;;15.93;;
36547;SDS011;22551;52.206;4.856;2022-09-12T01:41:12;30.52;;;15.80;;
36547;SDS011;22551;52.206;4.856;2022-09-12T01:46:28;27.48;;;15.43;;
36547;SDS011;22551;52.206;4.856;2022-09-12T01:51:37;24.95;;;15.57;;
36547;SDS011;22551;52.206;4.856;2022-09-12T01:56:42;23.10;;;14.93;;
36547;SDS011;22551;52.206;4.856;2022-09-12T02:01:48;29.90;;;15.13;;
36547;SDS011;22551;52.206;4.856;2022-09-12T02:06:57;27.50;;;16.17;;
36547;SDS011;22551;52.206;4.856;2022-09-12T02:12:05;28.40;;;16.25;;
36547;SDS011;22551;52.206;4.856;2022-09-12T02:17:13;26.67;;;16.00;;
36547;SDS011;22551;52.206;4.856;2022-09-12T02:22:20;29.67;;;16.85;;
36547;SDS011;22551;52.206;4.856;2022-09-12T02:27:27;30.25;;;16.98;;
36547;SDS011;22551;52.206;4.856;2022-09-12T02:32:40;29.50;;;16.10;;
36547;SDS011;22551;52.206;4.856;2022-09-12T02:37:51;32.25;;;16.75;;
36547;SDS011;22551;52.206;4.856;2022-09-12T02:43:00;32.33;;;17.20;;
36547;SDS011;22551;52.206;4.856;2022-09-12T02:48:08;32.78;;;18.15;;
36547;SDS011;22551;52.206;4.856;2022-09-12T02:53:13;31.10;;;17.52;;
36547;SDS011;22551;52.206;4.856;2022-09-12T02:58:17;31.38;;;16.70;;
36547;SDS011;22551;52.206;4.856;2022-09-12T03:03:29;33.25;;;17.33;;
36547;SDS011;22551;52.206;4.856;2022-09-12T03:08:56;26.55;;;15.93;;
36547;SDS011;22551;52.206;4.856;2022-09-12T03:14:09;30.67;;;17.35;;
36547;SDS011;22551;52.206;4.856;2022-09-12T03:19:24;32.38;;;17.98;;
36547;SDS011;22551;52.206;4.856;2022-09-12T03:24:37;29.52;;;17.85;;
36547;SDS011;22551;52.206;4.856;2022-09-12T03:29:48;30.95;;;17.50;;
36547;SDS011;22551;52.206;4.856;2022-09-12T03:34:53;27.95;;;17.00;;
36547;SDS011;22551;52.206;4.856;2022-09-12T03:39:55;37.00;;;17.58;;
36547;SDS011;22551;52.206;4.856;2022-09-12T03:44:57;30.38;;;17.30;;
36547;SDS011;22551;52.206;4.856;2022-09-12T03:50:00;32.25;;;17.58;;
36547;SDS011;22551;52.206;4.856;2022-09-12T03:55:03;32.27;;;17.97;;
36547;SDS011;22551;52.206;4.856;2022-09-12T04:00:07;33.95;;;17.23;;
36547;SDS011;22551;52.206;4.856;2022-09-12T04:05:12;30.65;;;16.98;;
36547;SDS011;22551;52.206;4.856;2022-09-12T04:10:14;33.17;;;17.83;;
36547;SDS011;22551;52.206;4.856;2022-09-12T04:15:16;34.80;;;18.35;;
36547;SDS011;22551;52.206;4.856;2022-09-12T04:20:20;29.55;;;17.50;;
36547;SDS011;22551;52.206;4.856;2022-09-12T04:25:22;32.17;;;18.63;;
36547;SDS011;22551;52.206;4.856;2022-09-12T04:30:24;36.90;;;18.48;;
36547;SDS011;22551;52.206;4.856;2022-09-12T04:35:27;32.08;;;17.58;;
36547;SDS011;22551;52.206;4.856;2022-09-12T04:40:30;34.65;;;17.70;;
36547;SDS011;22551;52.206;4.856;2022-09-12T04:45:32;30.75;;;18.17;;
36547;SDS011;22551;52.206;4.856;2022-09-12T04:50:35;37.33;;;19.30;;
36547;SDS011;22551;52.206;4.856;2022-09-12T04:55:37;29.55;;;17.33;;
36547;SDS011;22551;52.206;4.856;2022-09-12T05:00:39;34.83;;;18.25;;
36547;SDS011;22551;52.206;4.856;2022-09-12T05:05:43;36.00;;;18.65;;
36547;SDS011;22551;52.206;4.856;2022-09-12T05:10:45;35.50;;;18.23;;
36547;SDS011;22551;52.206;4.856;2022-09-12T05:15:52;32.50;;;18.35;;
36547;SDS011;22551;52.206;4.856;2022-09-12T05:20:57;35.60;;;19.20;;
36547;SDS011;22551;52.206;4.856;2022-09-12T05:26:00;38.03;;;18.60;;
36547;SDS011;22551;52.206;4.856;2022-09-12T05:31:05;38.97;;;19.47;;
36547;SDS011;22551;52.206;4.856;2022-09-12T05:36:12;36.88;;;18.92;;
36547;SDS011;22551;52.206;4.856;2022-09-12T05:41:17;33.33;;;18.48;;
36547;SDS011;22551;52.206;4.856;2022-09-12T05:46:22;31.77;;;17.90;;
36547;SDS011;22551;52.206;4.856;2022-09-12T05:56:33;33.97;;;17.00;;
36547;SDS011;22551;52.206;4.856;2022-09-12T06:01:39;33.53;;;17.02;;
36547;SDS011;22551;52.206;4.856;2022-09-12T06:06:43;29.88;;;16.88;;
36547;SDS011;22551;52.206;4.856;2022-09-12T06:11:46;35.05;;;17.65;;
36547;SDS011;22551;52.206;4.856;2022-09-12T06:16:48;33.83;;;17.92;;
36547;SDS011;22551;52.206;4.856;2022-09-12T06:21:52;36.95;;;17.95;;
36547;SDS011;22551;52.206;4.856;2022-09-12T06:26:54;33.17;;;16.20;;
36547;SDS011;22551;52.206;4.856;2022-09-12T06:31:56;32.70;;;18.15;;
36547;SDS011;22551;52.206;4.856;2022-09-12T06:37:00;38.42;;;17.67;;
36547;SDS011;22551;52.206;4.856;2022-09-12T06:42:03;32.23;;;16.70;;
36547;SDS011;22551;52.206;4.856;2022-09-12T06:47:05;39.10;;;18.33;;
36547;SDS011;22551;52.206;4.856;2022-09-12T06:52:09;31.73;;;17.48;;
36547;SDS011;22551;52.206;4.856;2022-09-12T06:57:11;32.42;;;18.52;;
36547;SDS011;22551;52.206;4.856;2022-09-12T07:02:13;36.13;;;17.98;;
36547;SDS011;22551;52.206;4.856;2022-09-12T07:07:17;37.35;;;18.02;;
36547;SDS011;22551;52.206;4.856;2022-09-12T07:12:19;31.95;;;17.75;;
36547;SDS011;22551;52.206;4.856;2022-09-12T07:17:22;37.10;;;18.55;;
36547;SDS011;22551;52.206;4.856;2022-09-12T07:22:25;37.20;;;18.17;;
36547;SDS011;22551;52.206;4.856;2022-09-12T07:27:28;30.83;;;17.73;;
36547;SDS011;22551;52.206;4.856;2022-09-12T07:32:30;37.95;;;18.38;;
36547;SDS011;22551;52.206;4.856;2022-09-12T07:37:33;34.55;;;18.73;;
36547;SDS011;22551;52.206;4.856;2022-09-12T07:42:35;31.05;;;17.33;;
36547;SDS011;22551;52.206;4.856;2022-09-12T07:47:37;29.73;;;17.00;;
36547;SDS011;22551;52.206;4.856;2022-09-12T07:52:41;32.67;;;16.33;;
36547;SDS011;22551;52.206;4.856;2022-09-12T07:57:43;26.50;;;15.50;;
36547;SDS011;22551;52.206;4.856;2022-09-12T08:02:49;28.25;;;16.48;;
36547;SDS011;22551;52.206;4.856;2022-09-12T08:07:53;28.85;;;14.80;;
36547;SDS011;22551;52.206;4.856;2022-09-12T08:12:55;23.85;;;14.52;;
36547;SDS011;22551;52.206;4.856;2022-09-12T08:17:58;29.92;;;15.80;;
36547;SDS011;22551;52.206;4.856;2022-09-12T08:23:02;25.15;;;14.82;;
36547;SDS011;22551;52.206;4.856;2022-09-12T08:28:04;28.83;;;15.00;;
36547;SDS011;22551;52.206;4.856;2022-09-12T08:33:06;27.65;;;15.15;;
36547;SDS011;22551;52.206;4.856;2022-09-12T08:38:10;27.80;;;16.33;;
36547;SDS011;22551;52.206;4.856;2022-09-12T08:43:13;26.17;;;13.70;;
36547;SDS011;22551;52.206;4.856;2022-09-12T08:48:32;24.95;;;14.02;;
36547;SDS011;22551;52.206;4.856;2022-09-12T08:53:36;23.50;;;14.13;;
36547;SDS011;22551;52.206;4.856;2022-09-12T09:03:47;19.30;;;12.45;;
36547;SDS011;22551;52.206;4.856;2022-09-12T09:09:25;24.80;;;12.57;;
36547;SDS011;22551;52.206;4.856;2022-09-12T09:14:45;21.40;;;11.73;;
36547;SDS011;22551;52.206;4.856;2022-09-12T09:20:16;14.82;;;9.90;;
36547;SDS011;22551;52.206;4.856;2022-09-12T09:25:38;16.83;;;10.35;;
36547;SDS011;22551;52.206;4.856;2022-09-12T09:30:46;13.70;;;8.90;;
36547;SDS011;22551;52.206;4.856;2022-09-12T09:35:51;16.02;;;9.45;;
36547;SDS011;22551;52.206;4.856;2022-09-12T09:41:06;14.18;;;9.05;;
36547;SDS011;22551;52.206;4.856;2022-09-12T09:46:23;11.20;;;7.10;;
36547;SDS011;22551;52.206;4.856;2022-09-12T09:56:36;15.32;;;7.80;;
36547;SDS011;22551;52.206;4.856;2022-09-12T10:01:45;15.35;;;8.07;;
36547;SDS011;22551;52.206;4.856;2022-09-12T10:06:50;10.60;;;7.82;;
36547;SDS011;22551;52.206;4.856;2022-09-12T10:11:55;10.85;;;6.13;;
36547;SDS011;22551;52.206;4.856;2022-09-12T10:16:57;12.52;;;6.45;;
36547;SDS011;22551;52.206;4.856;2022-09-12T10:22:00;14.63;;;6.80;;
36547;SDS011;22551;52.206;4.856;2022-09-12T10:27:08;10.75;;;7.15;;
36547;SDS011;22551;52.206;4.856;2022-09-12T10:32:19;9.68;;;6.80;;
36547;SDS011;22551;52.206;4.856;2022-09-12T10:37:28;12.25;;;7.13;;
36547;SDS011;22551;52.206;4.856;2022-09-12T10:47:57;9.83;;;7.03;;
36547;SDS011;22551;52.206;4.856;2022-09-12T10:58:26;10.10;;;5.72;;
36547;SDS011;22551;52.206;4.856;2022-09-12T11:03:44;8.82;;;5.63;;
36547;SDS011;22551;52.206;4.856;2022-09-12T11:09:04;9.23;;;6.05;;
36547;SDS011;22551;52.206;4.856;2022-09-12T11:14:25;7.88;;;5.10;;
36547;SDS011;22551;52.206;4.856;2022-09-12T11:25:46;3.58;;;3.03;;
36547;SDS011;22551;52.206;4.856;2022-09-12T11:31:01;5.28;;;2.72;;
36547;SDS011;22551;52.206;4.856;2022-09-12T11:36:31;4.07;;;2.70;;
36547;SDS011;22551;52.206;4.856;2022-09-12T11:41:40;4.80;;;3.00;;
36547;SDS011;22551;52.206;4.856;2022-09-12T11:46:46;3.60;;;2.33;;
36547;SDS011;22551;52.206;4.856;2022-09-12T11:51:50;3.47;;;2.40;;
36547;SDS011;22551;52.206;4.856;2022-09-12T11:57:00;2.67;;;2.30;;
36547;SDS011;22551;52.206;4.856;2022-09-12T12:02:16;3.35;;;2.78;;
36547;SDS011;22551;52.206;4.856;2022-09-12T12:07:27;3.20;;;2.13;;
36547;SDS011;22551;52.206;4.856;2022-09-12T12:12:35;4.13;;;2.67;;
36547;SDS011;22551;52.206;4.856;2022-09-12T12:17:39;4.23;;;2.80;;
36547;SDS011;22551;52.206;4.856;2022-09-12T12:22:49;7.57;;;3.13;;
36547;SDS011;22551;52.206;4.856;2022-09-12T12:27:54;3.05;;;2.25;;
36547;SDS011;22551;52.206;4.856;2022-09-12T12:33:04;3.60;;;2.20;;
36547;SDS011;22551;52.206;4.856;2022-09-12T12:45:00;3.03;;;2.22;;
36547;SDS011;22551;52.206;4.856;2022-09-12T12:50:06;3.67;;;2.40;;
36547;SDS011;22551;52.206;4.856;2022-09-12T12:55:22;5.50;;;2.78;;
36547;SDS011;22551;52.206;4.856;2022-09-12T13:00:28;3.30;;;2.08;;
36547;SDS011;22551;52.206;4.856;2022-09-12T13:05:39;4.65;;;2.75;;
36547;SDS011;22551;52.206;4.856;2022-09-12T13:10:47;6.43;;;2.42;;
36547;SDS011;22551;52.206;4.856;2022-09-12T13:15:52;5.35;;;2.72;;
36547;SDS011;22551;52.206;4.856;2022-09-12T13:21:01;3.83;;;1.97;;
36547;SDS011;22551;52.206;4.856;2022-09-12T13:26:10;2.78;;;2.00;;
36547;SDS011;22551;52.206;4.856;2022-09-12T13:31:16;3.65;;;2.80;;
36547;SDS011;22551;52.206;4.856;2022-09-12T13:36:29;5.13;;;2.00;;
36547;SDS011;22551;52.206;4.856;2022-09-12T13:42:01;2.15;;;1.85;;
36547;SDS011;22551;52.206;4.856;2022-09-12T13:47:40;4.55;;;2.10;;
36547;SDS011;22551;52.206;4.856;2022-09-12T13:52:47;2.92;;;2.58;;
36547;SDS011;22551;52.206;4.856;2022-09-12T13:57:55;2.47;;;1.90;;
36547;SDS011;22551;52.206;4.856;2022-09-12T14:03:01;4.18;;;2.60;;
36547;SDS011;22551;52.206;4.856;2022-09-12T14:08:45;2.30;;;1.90;;
36547;SDS011;22551;52.206;4.856;2022-09-12T14:13:48;2.35;;;1.85;;
36547;SDS011;22551;52.206;4.856;2022-09-12T14:18:51;3.63;;;1.40;;
36547;SDS011;22551;52.206;4.856;2022-09-12T14:23:55;4.30;;;1.80;;
36547;SDS011;22551;52.206;4.856;2022-09-12T14:28:58;5.00;;;1.65;;
36547;SDS011;22551;52.206;4.856;2022-09-12T14:34:09;2.58;;;1.67;;
36547;SDS011;22551;52.206;4.856;2022-09-12T14:39:17;1.60;;;1.50;;
36547;SDS011;22551;52.206;4.856;2022-09-12T14:44:24;3.05;;;1.40;;
36547;SDS011;22551;52.206;4.856;2022-09-12T14:49:30;2.60;;;1.20;;
36547;SDS011;22551;52.206;4.856;2022-09-12T14:54:39;1.23;;;1.13;;
36547;SDS011;22551;52.206;4.856;2022-09-12T15:00:04;1.90;;;1.60;;
36547;SDS011;22551;52.206;4.856;2022-09-12T15:05:18;1.25;;;1.15;;
36547;SDS011;22551;52.206;4.856;2022-09-12T15:10:28;2.25;;;1.60;;
36547;SDS011;22551;52.206;4.856;2022-09-12T15:15:32;8.18;;;2.10;;
36547;SDS011;22551;52.206;4.856;2022-09-12T15:20:36;4.10;;;1.60;;
36547;SDS011;22551;52.206;4.856;2022-09-12T15:25:40;1.92;;;1.42;;
36547;SDS011;22551;52.206;4.856;2022-09-12T15:30:43;3.03;;;1.77;;
36547;SDS011;22551;52.206;4.856;2022-09-12T15:40:50;2.85;;;1.70;;
36547;SDS011;22551;52.206;4.856;2022-09-12T15:45:53;4.28;;;1.50;;
36547;SDS011;22551;52.206;4.856;2022-09-12T15:50:55;2.08;;;1.73;;
36547;SDS011;22551;52.206;4.856;2022-09-12T15:56:02;2.08;;;1.40;;
36547;SDS011;22551;52.206;4.856;2022-09-12T16:01:04;3.95;;;1.77;;
36547;SDS011;22551;52.206;4.856;2022-09-12T16:06:06;1.92;;;1.73;;
36547;SDS011;22551;52.206;4.856;2022-09-12T16:11:12;2.35;;;1.90;;
36547;SDS011;22551;52.206;4.856;2022-09-12T16:16:20;2.78;;;2.08;;
36547;SDS011;22551;52.206;4.856;2022-09-12T16:21:22;2.67;;;2.13;;
36547;SDS011;22551;52.206;4.856;2022-09-12T16:26:26;1.48;;;1.38;;
36547;SDS011;22551;52.206;4.856;2022-09-12T16:31:29;2.65;;;1.85;;
36547;SDS011;22551;52.206;4.856;2022-09-12T16:36:31;4.63;;;1.42;;
36547;SDS011;22551;52.206;4.856;2022-09-12T16:41:34;1.98;;;1.77;;
36547;SDS011;22551;52.206;4.856;2022-09-12T16:51:39;2.50;;;1.70;;
36547;SDS011;22551;52.206;4.856;2022-09-12T16:56:45;1.92;;;1.60;;
36547;SDS011;22551;52.206;4.856;2022-09-12T17:01:48;4.00;;;1.98;;
36547;SDS011;22551;52.206;4.856;2022-09-12T17:06:51;2.92;;;2.10;;
36547;SDS011;22551;52.206;4.856;2022-09-12T17:11:54;8.70;;;2.45;;
36547;SDS011;22551;52.206;4.856;2022-09-12T17:16:57;3.10;;;2.28;;
36547;SDS011;22551;52.206;4.856;2022-09-12T17:21:59;4.32;;;2.25;;
36547;SDS011;22551;52.206;4.856;2022-09-12T17:27:03;5.63;;;2.50;;
36547;SDS011;22551;52.206;4.856;2022-09-12T17:32:05;4.38;;;2.42;;
36547;SDS011;22551;52.206;4.856;2022-09-12T17:37:07;3.03;;;2.33;;
36547;SDS011;22551;52.206;4.856;2022-09-12T17:42:11;5.30;;;1.88;;
36547;SDS011;22551;52.206;4.856;2022-09-12T17:47:13;5.13;;;2.50;;
36547;SDS011;22551;52.206;4.856;2022-09-12T17:52:15;1.90;;;1.70;;
36547;SDS011;22551;52.206;4.856;2022-09-12T17:57:18;5.65;;;2.40;;
36547;SDS011;22551;52.206;4.856;2022-09-12T18:02:21;3.45;;;2.20;;
36547;SDS011;22551;52.206;4.856;2022-09-12T18:07:23;3.38;;;1.98;;
36547;SDS011;22551;52.206;4.856;2022-09-12T18:12:27;5.15;;;2.53;;
36547;SDS011;22551;52.206;4.856;2022-09-12T18:17:29;3.72;;;2.15;;
36547;SDS011;22551;52.206;4.856;2022-09-12T18:22:32;5.72;;;2.55;;
36547;SDS011;22551;52.206;4.856;2022-09-12T18:27:35;3.90;;;2.80;;
36547;SDS011;22551;52.206;4.856;2022-09-12T18:32:37;3.80;;;2.88;;
36547;SDS011;22551;52.206;4.856;2022-09-12T18:37:40;5.28;;;3.35;;
36547;SDS011;22551;52.206;4.856;2022-09-12T18:42:45;5.67;;;3.33;;
36547;SDS011;22551;52.206;4.856;2022-09-12T18:47:47;5.43;;;3.63;;
36547;SDS011;22551;52.206;4.856;2022-09-12T18:52:50;4.43;;;3.13;;
36547;SDS011;22551;52.206;4.856;2022-09-12T18:57:55;4.10;;;2.80;;
36547;SDS011;22551;52.206;4.856;2022-09-12T19:02:57;6.00;;;3.70;;
36547;SDS011;22551;52.206;4.856;2022-09-12T19:08:00;3.22;;;2.45;;
36547;SDS011;22551;52.206;4.856;2022-09-12T19:13:04;6.13;;;2.90;;
36547;SDS011;22551;52.206;4.856;2022-09-12T19:18:06;4.05;;;2.83;;
36547;SDS011;22551;52.206;4.856;2022-09-12T19:23:08;4.60;;;3.58;;
36547;SDS011;22551;52.206;4.856;2022-09-12T19:28:12;5.60;;;3.30;;
36547;SDS011;22551;52.206;4.856;2022-09-12T19:33:15;4.60;;;3.30;;
36547;SDS011;22551;52.206;4.856;2022-09-12T19:38:18;6.50;;;3.13;;
36547;SDS011;22551;52.206;4.856;2022-09-12T19:43:21;9.60;;;3.60;;
36547;SDS011;22551;52.206;4.856;2022-09-12T19:48:23;5.07;;;3.55;;
36547;SDS011;22551;52.206;4.856;2022-09-12T19:53:26;3.28;;;2.95;;
36547;SDS011;22551;52.206;4.856;2022-09-12T19:58:34;5.72;;;3.65;;
36547;SDS011;22551;52.206;4.856;2022-09-12T20:03:38;7.63;;;4.07;;
36547;SDS011;22551;52.206;4.856;2022-09-12T20:08:41;5.30;;;4.07;;
36547;SDS011;22551;52.206;4.856;2022-09-12T20:13:45;7.35;;;4.75;;
36547;SDS011;22551;52.206;4.856;2022-09-12T20:18:47;6.97;;;4.78;;
36547;SDS011;22551;52.206;4.856;2022-09-12T20:23:54;6.70;;;4.53;;
36547;SDS011;22551;52.206;4.856;2022-09-12T20:29:01;6.10;;;4.50;;
36547;SDS011;22551;52.206;4.856;2022-09-12T20:34:03;7.45;;;4.55;;
36547;SDS011;22551;52.206;4.856;2022-09-12T20:39:06;10.75;;;5.80;;
36547;SDS011;22551;52.206;4.856;2022-09-12T20:44:14;7.05;;;4.95;;
36547;SDS011;22551;52.206;4.856;2022-09-12T20:49:16;9.52;;;4.88;;
36547;SDS011;22551;52.206;4.856;2022-09-12T20:54:19;6.97;;;4.80;;
36547;SDS011;22551;52.206;4.856;2022-09-12T20:59:22;7.82;;;5.35;;
36547;SDS011;22551;52.206;4.856;2022-09-12T21:04:24;9.63;;;4.50;;
36547;SDS011;22551;52.206;4.856;2022-09-12T21:09:26;7.90;;;5.07;;
36547;SDS011;22551;52.206;4.856;2022-09-12T21:14:30;9.38;;;5.30;;
36547;SDS011;22551;52.206;4.856;2022-09-12T21:19:32;6.80;;;4.70;;
36547;SDS011;22551;52.206;4.856;2022-09-12T21:24:34;9.63;;;5.60;;
36547;SDS011;22551;52.206;4.856;2022-09-12T21:29:37;8.38;;;5.60;;
36547;SDS011;22551;52.206;4.856;2022-09-12T21:34:40;10.30;;;6.67;;
36547;SDS011;22551;52.206;4.856;2022-09-12T21:39:42;9.93;;;6.63;;
36547;SDS011;22551;52.206;4.856;2022-09-12T21:44:45;12.63;;;7.68;;
36547;SDS011;22551;52.206;4.856;2022-09-12T21:49:47;11.23;;;7.60;;
36547;SDS011;22551;52.206;4.856;2022-09-12T21:54:50;12.93;;;8.15;;
36547;SDS011;22551;52.206;4.856;2022-09-12T21:59:53;9.30;;;7.03;;
36547;SDS011;22551;52.206;4.856;2022-09-12T22:04:55;10.70;;;6.97;;
36547;SDS011;22551;52.206;4.856;2022-09-12T22:09:58;16.40;;;8.77;;
36547;SDS011;22551;52.206;4.856;2022-09-12T22:15:01;11.88;;;7.57;;
36547;SDS011;22551;52.206;4.856;2022-09-12T22:20:04;12.93;;;8.35;;
36547;SDS011;22551;52.206;4.856;2022-09-12T22:25:07;10.37;;;7.67;;
36547;SDS011;22551;52.206;4.856;2022-09-12T22:30:13;12.45;;;7.85;;
36547;SDS011;22551;52.206;4.856;2022-09-12T22:35:15;12.90;;;7.60;;
36547;SDS011;22551;52.206;4.856;2022-09-12T22:40:18;14.87;;;7.90;;
36547;SDS011;22551;52.206;4.856;2022-09-12T22:45:22;14.88;;;9.15;;
36547;SDS011;22551;52.206;4.856;2022-09-12T22:50:24;12.83;;;8.67;;
36547;SDS011;22551;52.206;4.856;2022-09-12T22:55:26;14.25;;;8.65;;
36547;SDS011;22551;52.206;4.856;2022-09-12T23:00:30;15.13;;;8.73;;
36547;SDS011;22551;52.206;4.856;2022-09-12T23:10:36;16.10;;;9.07;;
36547;SDS011;22551;52.206;4.856;2022-09-12T23:15:40;16.58;;;9.35;;
36547;SDS011;22551;52.206;4.856;2022-09-12T23:20:42;12.90;;;9.10;;
36547;SDS011;22551;52.206;4.856;2022-09-12T23:25:44;13.88;;;8.65;;
36547;SDS011;22551;52.206;4.856;2022-09-12T23:30:53;15.65;;;9.52;;
36547;SDS011;22551;52.206;4.856;2022-09-12T23:35:56;14.68;;;9.57;;
36547;SDS011;22551;52.206;4.856;2022-09-12T23:41:01;16.13;;;10.80;;
36547;SDS011;22551;52.206;4.856;2022-09-12T23:46:05;16.50;;;10.97;;
36547;SDS011;22551;52.206;4.856;2022-09-12T23:51:08;17.20;;;10.67;;
36547;SDS011;22551;52.206;4.856;2022-09-12T23:56:11;14.40;;;9.73;;
